createdAt,value
2022-12-27T00:01:51.400Z,56.20
2022-12-27T00:04:17.906Z,56.44
2022-12-27T00:06:44.419Z,56.17
2022-12-27T00:09:10.962Z,56.47
2022-12-27T00:11:38.837Z,56.96
2022-12-27T00:14:06.822Z,58.00
2022-12-27T00:16:34.338Z,58.13
2022-12-27T00:19:01.059Z,58.12
2022-12-27T00:21:27.629Z,58.22
2022-12-27T00:23:56.070Z,58.29
2022-12-27T00:26:31.222Z,58.23
2022-12-27T00:28:58.277Z,58.77
2022-12-27T00:31:26.639Z,58.30
2022-12-27T00:33:55.574Z,57.83
2022-12-27T00:36:24.835Z,58.08
2022-12-27T00:38:52.518Z,58.20
2022-12-27T00:41:19.660Z,58.43
2022-12-27T00:43:46.864Z,58.24
2022-12-27T00:46:14.505Z,58.93
2022-12-27T00:48:41.482Z,58.44
2022-12-27T00:51:13.231Z,58.82
2022-12-27T00:53:39.870Z,58.91
2022-12-27T00:56:12.081Z,58.91
2022-12-27T00:58:41.009Z,59.08
2022-12-27T01:01:10.077Z,59.42
2022-12-27T01:03:36.817Z,60.42
2022-12-27T01:06:05.795Z,59.76
2022-12-27T01:08:32.224Z,61.13
2022-12-27T01:10:59.185Z,61.38
2022-12-27T01:13:25.712Z,60.64
2022-12-27T01:15:52.423Z,61.61
2022-12-27T01:18:18.869Z,60.90
2022-12-27T01:20:45.348Z,61.58
2022-12-27T01:23:11.883Z,61.89
2022-12-27T01:25:38.308Z,61.62
2022-12-27T01:28:05.384Z,62.12
2022-12-27T01:30:31.859Z,62.71
2022-12-27T01:32:58.342Z,62.96
2022-12-27T01:35:24.947Z,63.53
2022-12-27T01:37:52.023Z,63.62
2022-12-27T01:40:18.885Z,63.19
2022-12-27T01:42:55.584Z,63.66
2022-12-27T01:45:24.484Z,63.99
2022-12-27T01:48:01.265Z,63.38
2022-12-27T01:50:30.937Z,63.10
2022-12-27T01:52:57.312Z,64.06
2022-12-27T01:55:38.883Z,63.78
2022-12-27T01:58:12.001Z,63.73
2022-12-27T02:00:41.316Z,63.83
2022-12-27T02:03:08.061Z,64.37
2022-12-27T02:09:41.359Z,64.29
2022-12-27T02:12:10.179Z,64.61
2022-12-27T02:14:46.034Z,64.29
2022-12-27T02:17:25.146Z,64.44
2022-12-27T02:20:05.115Z,64.13
2022-12-27T02:23:12.033Z,65.02
2022-12-27T02:25:50.620Z,64.60
2022-12-27T02:28:53.203Z,65.09
2022-12-27T02:31:43.547Z,64.37
2022-12-27T02:34:24.222Z,64.50
2022-12-27T02:36:56.335Z,64.95
2022-12-27T02:39:23.637Z,64.67
2022-12-27T02:42:10.686Z,64.80
2022-12-27T02:44:55.825Z,64.89
2022-12-27T02:47:43.381Z,64.72
2022-12-27T02:50:30.872Z,64.01
2022-12-27T02:53:26.825Z,64.22
2022-12-27T02:56:37.247Z,64.93
2022-12-27T02:59:38.242Z,64.99
2022-12-27T03:02:38.328Z,64.54
2022-12-27T03:05:25.472Z,65.28
2022-12-27T03:08:21.484Z,65.65
2022-12-27T03:11:18.108Z,65.59
2022-12-27T03:14:25.778Z,65.32
2022-12-27T03:16:58.453Z,65.53
2022-12-27T03:19:52.305Z,65.48
2022-12-27T03:22:41.384Z,66.04
2022-12-27T03:25:27.856Z,65.75
2022-12-27T03:28:30.246Z,65.58
2022-12-27T03:31:27.965Z,65.83
2022-12-27T03:34:04.483Z,66.15
2022-12-27T03:36:52.845Z,65.95
2022-12-27T03:39:26.267Z,65.91
2022-12-27T03:42:21.897Z,65.53
2022-12-27T03:44:48.965Z,65.88
2022-12-27T03:47:34.850Z,65.98
2022-12-27T03:50:25.734Z,65.96
2022-12-27T03:53:00.900Z,66.36
2022-12-27T03:55:33.124Z,66.02
2022-12-27T03:58:00.165Z,66.57
2022-12-27T04:00:28.027Z,65.59
2022-12-27T04:02:54.957Z,65.91
2022-12-27T04:05:21.569Z,65.97
2022-12-27T04:08:06.332Z,66.05
2022-12-27T04:10:51.326Z,66.33
2022-12-27T04:13:36.109Z,65.71
2022-12-27T04:16:21.129Z,66.06
2022-12-27T04:19:06.010Z,65.77
2022-12-27T04:21:51.028Z,66.03
2022-12-27T04:24:35.869Z,66.18
2022-12-27T04:27:20.561Z,65.72
2022-12-27T04:30:05.387Z,65.90
2022-12-27T04:32:50.413Z,65.93
2022-12-27T04:35:16.877Z,65.48
2022-12-27T04:37:43.321Z,65.65
2022-12-27T04:40:28.640Z,65.92
2022-12-27T04:43:13.787Z,65.51
2022-12-27T04:45:58.954Z,65.47
2022-12-27T04:48:47.160Z,65.96
2022-12-27T04:51:32.203Z,65.64
2022-12-27T04:54:17.410Z,65.68
2022-12-27T04:56:43.871Z,65.97
2022-12-27T04:59:28.562Z,65.51
2022-12-27T05:02:04.500Z,65.27
2022-12-27T05:04:32.838Z,65.62
2022-12-27T05:07:19.935Z,64.90
2022-12-27T05:10:12.806Z,65.18
2022-12-27T05:12:57.731Z,64.95
2022-12-27T05:15:24.290Z,64.82
2022-12-27T05:17:50.714Z,65.31
2022-12-27T05:20:17.186Z,64.74
2022-12-27T05:23:02.064Z,64.83
2022-12-27T05:25:34.595Z,64.66
2022-12-27T05:28:05.590Z,64.52
2022-12-27T05:30:40.883Z,65.02
2022-12-27T05:33:07.883Z,64.98
2022-12-27T05:35:35.133Z,64.43
2022-12-27T05:38:01.863Z,64.37
2022-12-27T05:40:28.420Z,64.30
2022-12-27T05:42:54.872Z,64.40
2022-12-27T05:45:21.478Z,64.80
2022-12-27T05:47:47.895Z,64.38
2022-12-27T05:50:14.327Z,64.68
2022-12-27T05:52:41.506Z,64.50
2022-12-27T05:55:08.894Z,63.94
2022-12-27T05:57:35.358Z,64.12
2022-12-27T06:00:02.314Z,64.73
2022-12-27T06:02:29.021Z,64.67
2022-12-27T06:04:55.595Z,64.48
2022-12-27T06:07:22.063Z,64.73
2022-12-27T06:09:48.999Z,64.83
2022-12-27T06:12:15.603Z,65.01
2022-12-27T06:14:42.150Z,64.96
2022-12-27T06:17:08.585Z,65.16
2022-12-27T06:19:35.368Z,65.22
2022-12-27T06:22:01.960Z,64.97
2022-12-27T06:24:28.436Z,65.39
2022-12-27T06:26:54.834Z,65.25
2022-12-27T06:29:21.416Z,65.37
2022-12-27T06:31:48.268Z,65.44
2022-12-27T06:34:14.834Z,65.11
2022-12-27T06:36:41.321Z,66.00
2022-12-27T06:39:07.885Z,65.45
2022-12-27T06:41:34.330Z,65.61
2022-12-27T06:44:00.831Z,65.64
2022-12-27T06:46:27.464Z,65.70
2022-12-27T06:48:53.885Z,66.23
2022-12-27T06:51:21.956Z,65.72
2022-12-27T06:53:49.352Z,65.58
2022-12-27T06:56:22.087Z,65.76
2022-12-27T06:58:50.294Z,65.78
2022-12-27T07:01:21.259Z,65.86
2022-12-27T07:03:52.221Z,65.86
2022-12-27T07:06:20.081Z,65.43
2022-12-27T07:08:47.280Z,65.87
2022-12-27T07:11:14.723Z,65.79
2022-12-27T07:13:46.486Z,65.78
2022-12-27T07:16:15.060Z,66.04
2022-12-27T07:18:42.115Z,64.94
2022-12-27T07:21:20.313Z,65.39
2022-12-27T07:23:47.070Z,65.11
2022-12-27T07:26:23.005Z,65.12
2022-12-27T07:28:49.926Z,65.38
2022-12-27T07:31:20.827Z,65.65
2022-12-27T07:33:47.425Z,65.63
2022-12-27T07:36:16.998Z,64.87
2022-12-27T07:38:44.366Z,64.86
2022-12-27T07:41:12.258Z,65.30
2022-12-27T07:43:39.324Z,64.88
2022-12-27T07:46:09.104Z,64.31
2022-12-27T07:48:36.208Z,64.88
2022-12-27T07:51:03.849Z,63.91
2022-12-27T07:53:30.708Z,64.44
2022-12-27T07:55:57.693Z,64.44
2022-12-27T07:58:24.469Z,64.18
2022-12-27T08:00:52.541Z,64.11
2022-12-27T08:03:19.672Z,64.57
2022-12-27T08:05:52.417Z,63.79
2022-12-27T08:08:23.388Z,63.92
2022-12-27T08:10:49.978Z,64.42
2022-12-27T08:13:16.416Z,64.47
2022-12-27T08:15:43.841Z,64.56
2022-12-27T08:18:10.652Z,64.15
2022-12-27T08:20:37.287Z,63.83
2022-12-27T08:23:03.878Z,64.12
2022-12-27T08:25:30.778Z,63.79
2022-12-27T08:28:12.742Z,63.98
2022-12-27T08:30:40.897Z,64.32
2022-12-27T08:33:08.082Z,64.01
2022-12-27T08:35:52.676Z,64.28
2022-12-27T08:38:20.327Z,64.21
2022-12-27T08:40:46.896Z,64.23
2022-12-27T08:43:14.353Z,64.05
2022-12-27T08:45:40.836Z,63.42
2022-12-27T08:48:07.622Z,63.52
2022-12-27T08:50:34.359Z,63.04
2022-12-27T08:53:03.635Z,63.67
2022-12-27T08:55:30.834Z,63.62
2022-12-27T08:58:09.208Z,63.41
2022-12-27T09:00:40.380Z,63.53
2022-12-27T09:03:06.917Z,63.95
2022-12-27T09:05:39.624Z,63.49
2022-12-27T09:08:08.183Z,63.66
2022-12-27T09:10:34.649Z,63.55
2022-12-27T09:13:01.070Z,63.73
2022-12-27T09:15:27.659Z,63.26
2022-12-27T09:17:55.279Z,63.20
2022-12-27T09:20:21.728Z,62.85
2022-12-27T09:22:48.176Z,63.96
2022-12-27T09:25:14.706Z,63.56
2022-12-27T09:27:41.198Z,63.00
2022-12-27T09:30:09.253Z,63.22
2022-12-27T09:32:35.861Z,62.69
2022-12-27T09:35:03.191Z,62.33
2022-12-27T09:37:29.703Z,62.90
2022-12-27T09:39:56.948Z,63.28
2022-12-27T09:43:16.245Z,62.63
2022-12-27T09:45:50.405Z,62.58
2022-12-27T09:48:33.574Z,61.82
2022-12-27T09:51:07.081Z,61.12
2022-12-27T09:53:46.419Z,60.99
2022-12-27T09:56:17.860Z,60.95
2022-12-27T09:58:52.564Z,60.74
2022-12-27T10:01:23.760Z,59.40
2022-12-27T10:03:51.200Z,59.01
2022-12-27T10:06:20.345Z,58.00
2022-12-27T10:09:22.291Z,57.29
2022-12-27T10:12:09.867Z,56.89
2022-12-27T10:14:56.046Z,57.72
2022-12-27T10:18:00.043Z,57.20
2022-12-27T10:20:53.627Z,56.78
2022-12-27T10:23:24.317Z,58.53
2022-12-27T10:26:01.414Z,57.64
2022-12-27T10:28:38.604Z,58.02
2022-12-27T10:31:05.421Z,59.53
2022-12-27T10:33:34.665Z,60.20
2022-12-27T10:36:09.506Z,60.35
2022-12-27T10:38:36.159Z,60.26
2022-12-27T10:41:38.525Z,60.19
2022-12-27T10:44:11.510Z,59.78
2022-12-27T10:46:39.180Z,59.99
2022-12-27T10:49:21.316Z,59.47
2022-12-27T10:51:50.024Z,59.09
2022-12-27T10:54:22.317Z,60.02
2022-12-27T10:56:48.931Z,60.22
2022-12-27T10:59:19.839Z,61.36
2022-12-27T11:02:00.115Z,61.32
2022-12-27T11:04:27.101Z,61.87
2022-12-27T11:07:00.066Z,62.12
2022-12-27T11:09:46.456Z,61.64
2022-12-27T11:12:24.507Z,61.48
2022-12-27T11:14:56.969Z,62.50
2022-12-27T11:17:45.590Z,62.19
2022-12-27T11:20:14.948Z,62.27
2022-12-27T11:23:01.350Z,62.41
2022-12-27T11:25:29.376Z,62.24
2022-12-27T11:28:03.411Z,62.60
2022-12-27T11:30:33.743Z,62.41
2022-12-27T11:33:06.215Z,62.50
2022-12-27T11:35:44.762Z,61.79
2022-12-27T11:38:30.438Z,62.58
2022-12-27T11:41:03.326Z,62.23
2022-12-27T11:43:36.538Z,62.69
2022-12-27T11:46:10.571Z,62.34
2022-12-27T11:48:42.152Z,61.90
2022-12-27T11:51:20.463Z,62.04
2022-12-27T11:53:56.609Z,61.94
2022-12-27T11:56:37.976Z,61.20
2022-12-27T11:59:04.380Z,62.24
2022-12-27T12:01:44.302Z,61.52
2022-12-27T12:04:38.839Z,62.79
2022-12-27T12:07:17.458Z,62.11
2022-12-27T12:09:49.753Z,61.64
2022-12-27T12:12:22.010Z,62.17
2022-12-27T12:15:23.648Z,62.09
2022-12-27T12:18:17.712Z,62.31
2022-12-27T12:20:59.364Z,61.39
2022-12-27T12:23:25.750Z,61.26
2022-12-27T12:26:20.136Z,60.69
2022-12-27T12:28:59.890Z,60.19
2022-12-27T12:31:55.995Z,60.00
2022-12-27T12:34:37.646Z,60.45
2022-12-27T12:37:17.755Z,60.17
2022-12-27T12:40:27.391Z,60.64
2022-12-27T12:43:17.544Z,60.64
2022-12-27T12:46:10.854Z,59.17
2022-12-27T12:49:17.094Z,59.08
2022-12-27T12:52:20.483Z,58.80
2022-12-27T12:55:05.821Z,58.64
2022-12-27T12:57:44.663Z,57.47
2022-12-27T13:00:42.030Z,57.19
2022-12-27T13:03:23.483Z,57.25
2022-12-27T13:05:59.114Z,56.30
2022-12-27T13:08:43.768Z,58.39
2022-12-27T13:11:55.429Z,58.65
2022-12-27T13:14:59.729Z,58.30
2022-12-27T13:18:10.971Z,58.07
2022-12-27T13:21:00.298Z,59.09
2022-12-27T13:23:32.911Z,58.94
2022-12-27T13:26:30.227Z,58.69
2022-12-27T13:29:23.931Z,58.97
2022-12-27T13:32:10.985Z,58.50
2022-12-27T13:34:37.484Z,59.04
2022-12-27T13:37:31.064Z,59.18
2022-12-27T13:40:24.339Z,58.17
2022-12-27T13:43:29.065Z,57.78
2022-12-27T13:46:13.860Z,57.73
2022-12-27T13:49:05.264Z,58.73
2022-12-27T13:51:50.700Z,58.98
2022-12-27T13:54:41.555Z,58.76
2022-12-27T13:57:17.332Z,59.66
2022-12-27T13:59:51.194Z,59.83
2022-12-27T14:02:32.871Z,59.99
2022-12-27T14:05:02.379Z,59.79
2022-12-27T14:07:38.221Z,59.87
2022-12-27T14:10:19.703Z,59.89
2022-12-27T14:12:57.288Z,60.04
2022-12-27T14:15:41.388Z,59.75
2022-12-27T14:18:19.931Z,60.07
2022-12-27T14:21:17.369Z,60.11
2022-12-27T14:24:03.728Z,60.39
2022-12-27T14:26:55.415Z,60.21
2022-12-27T14:29:37.677Z,60.50
2022-12-27T14:32:13.959Z,60.33
2022-12-27T14:35:27.386Z,60.44
2022-12-27T14:38:21.024Z,60.07
2022-12-27T14:41:10.072Z,60.52
2022-12-27T14:43:54.500Z,60.51
2022-12-27T14:46:45.673Z,60.49
2022-12-27T14:49:34.575Z,60.14
2022-12-27T14:52:53.169Z,60.77
2022-12-27T14:55:34.549Z,61.70
2022-12-27T14:58:19.484Z,61.63
2022-12-27T15:01:15.015Z,61.93
2022-12-27T15:03:54.343Z,61.00
2022-12-27T15:06:33.220Z,61.81
2022-12-27T15:09:19.976Z,61.71
2022-12-27T15:11:57.835Z,61.95
2022-12-27T15:14:53.908Z,61.31
2022-12-27T15:17:51.130Z,61.97
2022-12-27T15:20:25.503Z,62.25
2022-12-27T15:23:07.006Z,62.14
2022-12-27T15:25:50.191Z,62.48
2022-12-27T15:28:25.780Z,61.78
2022-12-27T15:31:22.451Z,62.18
2022-12-27T15:34:19.950Z,62.96
2022-12-27T15:36:49.154Z,62.42
2022-12-27T15:39:34.086Z,62.44
2022-12-27T15:42:23.591Z,62.79
2022-12-27T15:45:27.148Z,63.13
2022-12-27T15:48:28.984Z,63.57
2022-12-27T15:50:59.420Z,63.79
2022-12-27T15:53:44.915Z,63.90
2022-12-27T15:56:20.202Z,64.30
2022-12-27T15:59:25.007Z,64.07
2022-12-27T16:02:23.715Z,64.02
2022-12-27T16:04:51.986Z,64.41
2022-12-27T16:07:37.160Z,64.98
2022-12-27T16:10:35.718Z,65.15
2022-12-27T16:13:05.007Z,65.18
2022-12-27T16:15:34.540Z,65.79
2022-12-27T16:18:02.571Z,65.46
2022-12-27T16:20:31.503Z,66.23
2022-12-27T16:23:10.046Z,66.76
2022-12-27T16:25:37.935Z,66.08
2022-12-27T16:28:20.244Z,66.22
2022-12-27T16:30:50.084Z,66.82
2022-12-27T16:33:33.614Z,66.77
2022-12-27T16:36:12.275Z,66.23
2022-12-27T16:38:46.700Z,66.97
2022-12-27T16:41:17.703Z,66.67
2022-12-27T16:43:59.488Z,66.70
2022-12-27T16:46:31.855Z,67.05
2022-12-27T16:49:28.798Z,67.27
2022-12-27T16:52:14.891Z,66.97
2022-12-27T16:55:15.545Z,67.19
2022-12-27T16:57:47.977Z,67.12
2022-12-27T17:00:36.495Z,66.88
2022-12-27T17:03:20.865Z,67.07
2022-12-27T17:06:22.165Z,66.38
2022-12-27T17:08:39.105Z,66.91
2022-12-27T17:11:14.836Z,66.62
2022-12-27T17:13:51.007Z,66.29
2022-12-27T17:16:22.684Z,66.36
2022-12-27T17:18:53.481Z,65.92
2022-12-27T17:21:34.094Z,66.87
2022-12-27T17:24:07.523Z,66.67
2022-12-27T17:27:05.989Z,66.59
2022-12-27T17:30:13.685Z,66.19
2022-12-27T17:33:23.526Z,66.92
2022-12-27T17:36:01.919Z,67.42
2022-12-27T17:38:51.629Z,66.94
2022-12-27T17:41:53.739Z,67.23
2022-12-27T17:44:38.177Z,67.41
2022-12-27T17:47:25.679Z,67.37
2022-12-27T17:49:53.753Z,67.09
2022-12-27T17:52:43.959Z,67.21
2022-12-27T17:55:39.522Z,67.63
2022-12-27T17:58:11.762Z,67.53
2022-12-27T18:00:55.022Z,67.36
2022-12-27T18:03:23.262Z,67.79
2022-12-27T18:05:50.127Z,67.19
2022-12-27T18:08:22.525Z,67.90
2022-12-27T18:10:49.185Z,67.99
2022-12-27T18:13:20.671Z,67.21
2022-12-27T18:15:49.630Z,67.69
2022-12-27T18:18:28.141Z,67.96
2022-12-27T18:21:04.063Z,67.71
2022-12-27T18:23:40.674Z,67.33
2022-12-27T18:26:13.395Z,67.52
2022-12-27T18:28:41.194Z,67.79
2022-12-27T18:31:19.769Z,67.40
2022-12-27T18:33:50.567Z,68.04
2022-12-27T18:36:31.860Z,68.40
2022-12-27T18:39:05.070Z,68.22
2022-12-27T18:41:46.586Z,68.15
2022-12-27T18:44:26.512Z,67.53
2022-12-27T18:47:04.332Z,68.11
2022-12-27T18:49:33.916Z,68.06
2022-12-27T18:52:02.240Z,68.05
2022-12-27T18:54:28.660Z,68.04
2022-12-27T18:57:00.395Z,68.05
2022-12-27T18:59:30.032Z,68.45
2022-12-27T19:01:59.497Z,68.44
2022-12-27T19:04:31.669Z,68.39
2022-12-27T19:07:01.057Z,69.30
2022-12-27T19:09:35.233Z,68.82
2022-12-27T19:12:26.346Z,68.83
2022-12-27T19:14:54.030Z,69.25
2022-12-27T19:17:32.221Z,69.12
2022-12-27T19:20:02.488Z,69.16
2022-12-27T19:22:40.531Z,69.34
2022-12-27T19:25:34.972Z,69.17
2022-12-27T19:28:05.733Z,68.83
2022-12-27T19:30:39.215Z,68.72
2022-12-27T19:33:13.291Z,68.91
2022-12-27T19:35:40.998Z,69.39
2022-12-27T19:38:11.652Z,69.43
2022-12-27T19:40:39.952Z,69.45
2022-12-27T19:43:06.434Z,69.36
2022-12-27T19:45:32.911Z,69.74
2022-12-27T19:47:59.381Z,69.02
2022-12-27T19:50:25.893Z,69.85
2022-12-27T19:52:52.557Z,69.44
2022-12-27T19:55:24.545Z,69.38
2022-12-27T19:57:51.450Z,69.47
2022-12-27T20:00:18.813Z,69.69
2022-12-27T20:02:45.760Z,69.50
2022-12-27T20:05:12.769Z,69.63
2022-12-27T20:07:40.218Z,69.51
2022-12-27T20:10:07.663Z,69.25
2022-12-27T20:12:34.193Z,69.27
2022-12-27T20:15:00.921Z,69.08
2022-12-27T20:17:28.678Z,69.27
2022-12-27T20:19:55.223Z,69.59
2022-12-27T20:22:21.687Z,69.54
2022-12-27T20:24:48.277Z,69.83
2022-12-27T20:27:14.753Z,69.43
2022-12-27T20:29:41.353Z,69.17
2022-12-27T20:32:08.004Z,69.17
2022-12-27T20:34:36.998Z,69.27
2022-12-27T20:37:03.760Z,69.39
2022-12-27T20:39:30.261Z,69.90
2022-12-27T20:41:56.803Z,69.35
2022-12-27T20:44:23.507Z,69.95
2022-12-27T20:46:50.691Z,70.29
2022-12-27T20:49:17.370Z,69.92
2022-12-27T20:51:43.798Z,69.93
2022-12-27T20:54:12.109Z,69.44
2022-12-27T20:56:38.778Z,69.44
2022-12-27T20:59:05.287Z,70.00
2022-12-27T21:01:32.359Z,70.29
2022-12-27T21:03:58.951Z,69.76
2022-12-27T21:06:27.802Z,69.66
2022-12-27T21:08:57.129Z,69.87
2022-12-27T21:11:27.463Z,70.10
2022-12-27T21:13:54.880Z,69.89
2022-12-27T21:16:23.953Z,70.02
2022-12-27T21:18:50.912Z,70.52
2022-12-27T21:21:20.136Z,69.82
2022-12-27T21:23:47.456Z,69.71
2022-12-27T21:26:27.841Z,70.34
2022-12-27T21:28:55.143Z,70.50
2022-12-27T21:31:22.504Z,70.39
2022-12-27T21:33:49.494Z,70.12
2022-12-27T21:36:21.935Z,70.26
2022-12-27T21:38:48.881Z,70.82
2022-12-27T21:41:26.387Z,71.47
2022-12-27T21:43:53.281Z,71.42
2022-12-27T21:46:26.952Z,71.43
2022-12-27T21:49:07.935Z,71.98
2022-12-27T21:51:35.990Z,71.50
2022-12-27T21:54:03.520Z,71.74
2022-12-27T21:56:30.963Z,72.24
2022-12-27T21:58:59.780Z,72.22
2022-12-27T22:01:29.192Z,71.57
2022-12-27T22:03:57.441Z,72.03
2022-12-27T22:06:28.631Z,72.08
2022-12-27T22:09:00.733Z,72.52
2022-12-27T22:11:28.322Z,72.09
2022-12-27T22:13:56.729Z,72.27
2022-12-27T22:16:27.681Z,72.40
2022-12-27T22:18:55.990Z,72.27
2022-12-27T22:21:25.631Z,72.75
2022-12-27T22:23:54.116Z,72.57
2022-12-27T22:26:23.488Z,72.78
2022-12-27T22:28:50.089Z,72.90
2022-12-27T22:31:19.596Z,73.15
2022-12-27T22:33:46.556Z,73.39
2022-12-27T22:36:15.795Z,73.55
2022-12-27T22:38:47.617Z,73.33
2022-12-27T22:41:27.192Z,73.38
2022-12-27T22:43:58.698Z,73.21
2022-12-27T22:46:26.339Z,73.11
2022-12-27T22:48:55.309Z,73.95
2022-12-27T22:51:28.156Z,73.56
2022-12-27T22:53:56.064Z,73.20
2022-12-27T22:56:28.051Z,73.19
2022-12-27T22:58:54.874Z,73.06
2022-12-27T23:01:25.065Z,73.45
2022-12-27T23:03:51.807Z,73.25
2022-12-27T23:06:18.582Z,73.09
2022-12-27T23:08:45.991Z,73.78
2022-12-27T23:11:16.987Z,73.19
2022-12-27T23:13:44.121Z,73.62
2022-12-27T23:16:10.802Z,73.23
2022-12-27T23:18:39.481Z,72.74
2022-12-27T23:21:21.693Z,72.58
2022-12-27T23:23:50.827Z,72.91
2022-12-27T23:26:20.226Z,72.61
2022-12-27T23:28:48.185Z,72.70
2022-12-27T23:31:15.653Z,71.56
2022-12-27T23:33:43.177Z,72.11
2022-12-27T23:36:10.761Z,72.56
2022-12-27T23:38:37.273Z,71.75
2022-12-27T23:41:06.232Z,72.07
2022-12-27T23:43:52.290Z,71.63
2022-12-27T23:46:31.914Z,71.58
2022-12-27T23:49:01.337Z,71.72
2022-12-27T23:51:29.998Z,72.18
2022-12-27T23:53:56.896Z,71.73
2022-12-27T23:56:26.158Z,71.58
2022-12-27T23:58:54.706Z,71.18
